createdAt,value
2022-08-18T00:01:55.276Z,22.72
2022-08-18T00:04:35.411Z,22.70
2022-08-18T00:07:03.777Z,22.58
2022-08-18T00:09:32.791Z,22.74
2022-08-18T00:12:03.349Z,22.70
2022-08-18T00:14:30.374Z,22.29
2022-08-18T00:16:57.426Z,22.63
2022-08-18T00:19:46.894Z,22.71
2022-08-18T00:22:15.942Z,22.19
2022-08-18T00:24:54.581Z,22.27
2022-08-18T00:27:31.593Z,22.60
2022-08-18T00:30:01.617Z,22.49
2022-08-18T00:32:35.171Z,22.52
2022-08-18T00:35:06.571Z,22.57
2022-08-18T00:37:33.840Z,22.19
2022-08-18T00:40:00.803Z,21.98
2022-08-18T00:42:31.016Z,22.11
2022-08-18T00:45:04.265Z,22.30
2022-08-18T00:47:42.758Z,22.44
2022-08-18T00:50:18.438Z,22.24
2022-08-18T00:52:55.946Z,21.98
2022-08-18T00:55:25.574Z,22.40
2022-08-18T00:57:57.694Z,22.35
2022-08-18T01:00:24.808Z,22.27
2022-08-18T01:02:56.092Z,22.19
2022-08-18T01:05:30.625Z,22.35
2022-08-18T01:07:57.960Z,22.27
2022-08-18T01:10:25.234Z,22.13
2022-08-18T01:12:58.347Z,22.25
2022-08-18T01:15:30.222Z,22.20
2022-08-18T01:18:23.670Z,22.12
2022-08-18T01:21:15.057Z,22.16
2022-08-18T01:23:42.329Z,22.06
2022-08-18T01:26:10.200Z,22.04
2022-08-18T01:28:41.350Z,22.03
2022-08-18T01:31:10.099Z,21.93
2022-08-18T01:33:42.167Z,21.99
2022-08-18T01:36:09.224Z,21.66
2022-08-18T01:38:36.123Z,21.23
2022-08-18T01:41:28.574Z,21.39
2022-08-18T01:43:50.412Z,21.00
2022-08-18T01:46:21.322Z,21.38
2022-08-18T01:48:49.225Z,21.82
2022-08-18T01:51:16.784Z,21.84
2022-08-18T01:53:44.677Z,21.68
2022-08-18T01:56:13.185Z,21.71
2022-08-18T01:58:40.174Z,21.72
2022-08-18T02:01:07.108Z,21.25
2022-08-18T02:03:38.187Z,21.73
2022-08-18T02:06:11.196Z,21.65
2022-08-18T02:08:43.777Z,21.70
2022-08-18T02:11:14.854Z,21.24
2022-08-18T02:13:42.485Z,21.44
2022-08-18T02:16:09.535Z,21.03
2022-08-18T02:18:48.266Z,20.68
2022-08-18T02:21:19.222Z,21.46
2022-08-18T02:23:53.106Z,20.91
2022-08-18T02:26:23.498Z,21.51
2022-08-18T02:28:51.001Z,21.55
2022-08-18T02:31:20.373Z,21.41
2022-08-18T02:33:51.681Z,21.27
2022-08-18T02:36:21.033Z,21.50
2022-08-18T02:38:54.842Z,21.39
2022-08-18T02:41:29.481Z,21.32
2022-08-18T02:43:58.499Z,19.93
2022-08-18T02:46:30.036Z,21.16
2022-08-18T02:48:59.836Z,21.34
2022-08-18T02:51:27.274Z,21.13
2022-08-18T02:53:54.883Z,21.30
2022-08-18T02:56:40.458Z,21.29
2022-08-18T02:59:16.468Z,21.45
2022-08-18T03:01:46.922Z,21.21
2022-08-18T03:04:16.944Z,21.07
2022-08-18T03:06:45.524Z,21.08
2022-08-18T03:09:15.176Z,21.15
2022-08-18T03:11:43.813Z,21.08
2022-08-18T03:14:11.967Z,21.24
2022-08-18T03:16:52.879Z,21.14
2022-08-18T03:19:29.782Z,21.34
2022-08-18T03:22:03.270Z,21.34
2022-08-18T03:24:32.622Z,21.16
2022-08-18T03:27:01.009Z,21.39
2022-08-18T03:29:32.332Z,21.33
2022-08-18T03:32:06.794Z,21.42
2022-08-18T03:34:34.533Z,20.60
2022-08-18T03:37:01.677Z,21.27
2022-08-18T03:39:29.393Z,21.05
2022-08-18T03:42:01.181Z,21.49
2022-08-18T03:44:36.667Z,21.60
2022-08-18T03:47:07.638Z,21.39
2022-08-18T03:49:35.040Z,21.02
2022-08-18T03:52:03.199Z,21.60
2022-08-18T03:54:32.413Z,21.64
2022-08-18T03:57:00.526Z,21.77
2022-08-18T03:59:28.561Z,21.80
2022-08-18T04:01:55.933Z,21.79
2022-08-18T04:04:26.399Z,21.82
2022-08-18T04:06:59.272Z,21.87
2022-08-18T04:09:29.449Z,21.66
2022-08-18T04:12:03.011Z,21.97
2022-08-18T04:14:32.089Z,21.62
2022-08-18T04:16:59.808Z,22.03
2022-08-18T04:19:27.931Z,22.05
2022-08-18T04:21:57.831Z,22.08
2022-08-18T04:24:28.113Z,21.99
2022-08-18T04:26:56.783Z,21.97
2022-08-18T04:29:26.198Z,22.11
2022-08-18T04:31:53.299Z,22.16
2022-08-18T04:34:22.786Z,22.17
2022-08-18T04:36:54.424Z,22.24
2022-08-18T04:39:22.767Z,22.22
2022-08-18T04:41:50.471Z,22.01
2022-08-18T04:44:18.548Z,22.06
2022-08-18T04:46:54.368Z,22.49
2022-08-18T04:49:26.190Z,22.07
2022-08-18T04:52:37.140Z,22.59
2022-08-18T04:55:01.883Z,22.69
2022-08-18T04:57:34.942Z,22.73
2022-08-18T05:00:05.527Z,22.84
2022-08-18T05:02:33.144Z,22.19
2022-08-18T05:05:01.666Z,23.04
2022-08-18T05:07:30.527Z,23.10
2022-08-18T05:09:57.670Z,23.04
2022-08-18T05:12:26.381Z,23.26
2022-08-18T05:14:57.120Z,23.07
2022-08-18T05:17:29.003Z,23.12
2022-08-18T05:20:00.875Z,23.32
2022-08-18T05:22:37.668Z,23.40
2022-08-18T05:25:05.661Z,23.43
2022-08-18T05:27:35.353Z,23.52
2022-08-18T05:30:04.631Z,23.55
2022-08-18T05:32:48.176Z,23.47
2022-08-18T05:35:23.670Z,23.62
2022-08-18T05:38:29.544Z,23.77
2022-08-18T05:41:07.575Z,23.62
2022-08-18T05:43:51.179Z,23.80
2022-08-18T05:46:21.828Z,23.84
2022-08-18T05:48:49.121Z,23.77
2022-08-18T05:51:22.969Z,23.92
2022-08-18T05:54:08.731Z,23.98
2022-08-18T05:56:46.786Z,23.55
2022-08-18T05:59:26.657Z,24.13
2022-08-18T06:02:06.342Z,24.04
2022-08-18T06:04:56.247Z,24.24
2022-08-18T06:07:51.522Z,23.94
2022-08-18T06:10:19.272Z,24.20
2022-08-18T06:12:53.665Z,24.39
2022-08-18T06:15:42.273Z,24.64
2022-08-18T06:18:26.667Z,24.62
2022-08-18T06:21:14.321Z,24.73
2022-08-18T06:23:47.170Z,24.87
2022-08-18T06:26:40.064Z,24.97
2022-08-18T06:29:17.394Z,25.03
2022-08-18T06:31:45.236Z,25.14
2022-08-18T06:34:21.232Z,25.22
2022-08-18T06:36:48.184Z,25.30
2022-08-18T06:39:21.098Z,25.41
2022-08-18T06:41:51.239Z,25.51
2022-08-18T06:44:42.682Z,25.65
2022-08-18T06:47:54.501Z,25.79
2022-08-18T06:50:32.130Z,25.86
2022-08-18T06:53:04.925Z,25.91
2022-08-18T06:55:36.872Z,26.08
2022-08-18T06:58:19.757Z,25.47
2022-08-18T07:00:56.097Z,26.36
2022-08-18T07:03:41.746Z,26.44
2022-08-18T07:06:23.359Z,26.39
2022-08-18T07:08:55.781Z,26.48
2022-08-18T07:11:27.577Z,26.76
2022-08-18T07:14:17.257Z,26.75
2022-08-18T07:16:58.332Z,26.97
2022-08-18T07:19:29.836Z,25.92
2022-08-18T07:22:10.830Z,27.27
2022-08-18T07:24:45.641Z,27.42
2022-08-18T07:27:40.536Z,27.42
2022-08-18T07:30:07.865Z,27.63
2022-08-18T07:32:45.639Z,27.70
2022-08-18T07:35:19.753Z,27.70
2022-08-18T07:38:43.589Z,27.94
2022-08-18T07:41:27.359Z,27.95
2022-08-18T07:44:13.953Z,28.15
2022-08-18T07:46:54.363Z,27.90
2022-08-18T07:49:24.887Z,27.92
2022-08-18T07:52:22.609Z,28.50
2022-08-18T07:55:16.089Z,28.48
2022-08-18T07:57:55.877Z,28.48
2022-08-18T08:00:58.593Z,28.09
2022-08-18T08:03:51.833Z,28.53
2022-08-18T08:06:37.016Z,28.63
2022-08-18T08:09:06.561Z,28.84
2022-08-18T08:11:48.104Z,28.87
2022-08-18T08:14:42.217Z,28.71
2022-08-18T08:17:23.673Z,29.05
2022-08-18T08:20:09.018Z,29.19
2022-08-18T08:22:59.350Z,29.29
2022-08-18T08:26:00.783Z,29.50
2022-08-18T08:28:35.243Z,29.16
2022-08-18T08:31:32.658Z,29.73
2022-08-18T08:34:22.726Z,29.84
2022-08-18T08:36:58.732Z,29.51
2022-08-18T08:39:36.901Z,28.85
2022-08-18T08:42:30.951Z,29.58
2022-08-18T08:45:07.421Z,29.96
2022-08-18T08:48:08.419Z,28.97
2022-08-18T08:50:43.844Z,29.98
2022-08-18T08:53:25.578Z,29.56
2022-08-18T08:56:16.434Z,30.13
2022-08-18T08:58:49.673Z,30.10
2022-08-18T09:01:27.571Z,30.11
2022-08-18T09:04:06.412Z,30.31
2022-08-18T09:06:52.398Z,29.60
2022-08-18T09:09:25.535Z,30.21
2022-08-18T09:11:52.994Z,30.23
2022-08-18T09:14:29.042Z,30.20
2022-08-18T09:17:20.764Z,30.27
2022-08-18T09:19:56.779Z,30.19
2022-08-18T09:22:48.813Z,30.27
2022-08-18T09:25:45.160Z,30.32
2022-08-18T09:28:25.099Z,30.22
2022-08-18T09:30:55.354Z,30.08
2022-08-18T09:33:40.893Z,29.80
2022-08-18T09:36:36.656Z,30.63
2022-08-18T09:39:25.099Z,30.64
2022-08-18T09:42:03.322Z,29.56
2022-08-18T09:44:48.869Z,30.42
2022-08-18T09:47:24.641Z,30.92
2022-08-18T09:49:56.008Z,31.21
2022-08-18T09:52:24.503Z,31.52
2022-08-18T09:54:58.624Z,31.56
2022-08-18T09:57:30.048Z,31.66
2022-08-18T10:00:15.035Z,31.76
2022-08-18T10:02:48.743Z,31.76
2022-08-18T10:05:22.602Z,31.69
2022-08-18T10:08:06.202Z,30.20
2022-08-18T10:11:00.599Z,31.35
2022-08-18T10:13:49.160Z,31.17
2022-08-18T10:17:13.082Z,30.59
2022-08-18T10:20:03.890Z,30.85
2022-08-18T10:22:40.215Z,30.54
2022-08-18T10:25:23.091Z,30.65
2022-08-18T10:27:55.387Z,30.43
2022-08-18T10:30:36.440Z,30.50
2022-08-18T10:33:56.100Z,30.55
2022-08-18T10:37:02.761Z,30.45
2022-08-18T10:39:41.827Z,30.29
2022-08-18T10:42:31.748Z,30.39
2022-08-18T10:45:38.201Z,30.45
2022-08-18T10:48:05.210Z,30.22
2022-08-18T10:50:50.074Z,30.05
2022-08-18T10:56:32.088Z,30.66
2022-08-18T10:59:20.000Z,30.60
2022-08-18T11:02:11.246Z,30.42
2022-08-18T11:04:58.728Z,30.57
2022-08-18T11:07:30.825Z,30.46
2022-08-18T11:10:30.049Z,30.46
2022-08-18T11:13:16.069Z,30.05
2022-08-18T11:16:30.290Z,30.71
2022-08-18T11:19:10.437Z,30.25
2022-08-18T11:21:42.010Z,30.35
2022-08-18T11:24:15.924Z,30.55
2022-08-18T11:26:53.610Z,30.63
2022-08-18T11:29:24.008Z,30.65
2022-08-18T11:31:59.642Z,30.70
2022-08-18T11:34:36.888Z,30.71
2022-08-18T11:37:09.619Z,30.69
2022-08-18T11:39:47.966Z,31.08
2022-08-18T11:42:25.113Z,31.05
2022-08-18T11:44:55.651Z,30.93
2022-08-18T11:47:23.480Z,31.10
2022-08-18T11:50:08.525Z,31.19
2022-08-18T11:52:54.026Z,31.27
2022-08-18T11:55:33.780Z,31.35
2022-08-18T11:58:01.029Z,31.34
2022-08-18T12:01:01.439Z,31.42
2022-08-18T12:04:08.425Z,31.52
2022-08-18T12:07:00.679Z,31.29
2022-08-18T12:10:25.703Z,31.41
2022-08-18T12:12:54.793Z,31.21
2022-08-18T12:15:43.511Z,31.37
2022-08-18T12:21:03.286Z,31.17
2022-08-18T12:23:38.907Z,31.18
2022-08-18T12:29:09.032Z,31.12
2022-08-18T12:31:42.535Z,31.16
2022-08-18T12:34:17.769Z,31.12
2022-08-18T12:36:52.637Z,31.25
2022-08-18T12:39:19.815Z,30.67
2022-08-18T12:41:47.568Z,30.37
2022-08-18T12:44:15.379Z,30.69
2022-08-18T12:46:45.541Z,30.37
2022-08-18T12:49:20.880Z,30.84
2022-08-18T12:51:50.257Z,30.32
2022-08-18T12:57:09.713Z,30.81
2022-08-18T12:59:37.884Z,30.60
2022-08-18T13:02:05.541Z,30.69
2022-08-18T13:04:33.224Z,30.72
2022-08-18T13:07:04.766Z,30.73
2022-08-18T13:09:53.340Z,30.69
2022-08-18T13:12:22.269Z,30.64
2022-08-18T13:14:51.534Z,30.76
2022-08-18T13:17:30.612Z,30.13
2022-08-18T13:20:05.689Z,30.52
2022-08-18T13:22:33.371Z,30.41
2022-08-18T13:25:03.907Z,30.27
2022-08-18T13:27:35.235Z,30.07
2022-08-18T13:30:29.654Z,30.57
2022-08-18T13:32:58.614Z,30.11
2022-08-18T13:35:29.904Z,30.49
2022-08-18T13:38:17.111Z,30.08
2022-08-18T13:40:51.220Z,30.48
2022-08-18T13:43:23.361Z,30.13
2022-08-18T13:45:52.798Z,30.26
2022-08-18T13:48:21.762Z,29.91
2022-08-18T13:50:52.917Z,30.38
2022-08-18T13:53:21.950Z,29.89
2022-08-18T13:55:49.536Z,30.27
2022-08-18T13:58:20.281Z,30.17
2022-08-18T14:00:51.756Z,29.85
2022-08-18T14:03:30.669Z,30.22
2022-08-18T14:06:07.629Z,29.45
2022-08-18T14:08:35.004Z,30.19
2022-08-18T14:11:03.449Z,29.79
2022-08-18T14:13:38.085Z,29.88
2022-08-18T14:16:10.595Z,30.13
2022-08-18T14:18:39.247Z,29.02
2022-08-18T14:21:24.997Z,29.93
2022-08-18T14:24:14.230Z,30.04
2022-08-18T14:26:51.148Z,29.92
2022-08-18T14:29:42.982Z,30.03
2022-08-18T14:32:07.671Z,30.02
2022-08-18T14:34:35.210Z,29.87
2022-08-18T14:37:03.318Z,29.91
2022-08-18T14:39:30.460Z,29.96
2022-08-18T14:41:58.668Z,29.91
2022-08-18T14:44:31.773Z,29.92
2022-08-18T14:46:59.697Z,29.78
2022-08-18T14:49:28.304Z,29.92
2022-08-18T14:52:01.442Z,29.77
2022-08-18T14:54:30.102Z,29.86
2022-08-18T14:57:01.839Z,29.58
2022-08-18T14:59:31.007Z,29.73
2022-08-18T15:02:06.718Z,29.73
2022-08-18T15:04:56.339Z,29.67
2022-08-18T15:07:25.897Z,29.48
2022-08-18T15:10:15.154Z,29.63
2022-08-18T15:12:40.380Z,28.85
2022-08-18T15:15:12.483Z,29.40
2022-08-18T15:17:44.910Z,29.14
2022-08-18T15:20:18.053Z,29.31
2022-08-18T15:23:04.836Z,29.06
2022-08-18T15:25:50.940Z,29.41
2022-08-18T15:28:22.054Z,29.38
2022-08-18T15:31:16.794Z,28.16
2022-08-18T15:33:39.723Z,29.34
2022-08-18T15:36:10.161Z,29.16
2022-08-18T15:38:38.498Z,29.25
2022-08-18T15:41:06.125Z,29.30
2022-08-18T15:43:33.941Z,29.10
2022-08-18T15:46:03.737Z,29.07
2022-08-18T15:48:31.100Z,29.05
2022-08-18T15:51:11.788Z,28.62
2022-08-18T15:53:45.471Z,28.64
2022-08-18T15:56:15.099Z,29.14
2022-08-18T15:58:42.390Z,29.06
2022-08-18T16:01:30.059Z,29.08
2022-08-18T16:03:57.865Z,28.89
2022-08-18T16:06:27.742Z,28.65
2022-08-18T16:09:01.575Z,28.86
2022-08-18T16:11:30.076Z,28.29
2022-08-18T16:14:01.347Z,28.86
2022-08-18T16:16:36.406Z,28.68
2022-08-18T16:19:06.784Z,28.18
2022-08-18T16:21:39.949Z,28.74
2022-08-18T16:24:08.304Z,28.71
2022-08-18T16:26:35.522Z,28.68
2022-08-18T16:29:02.486Z,28.47
2022-08-18T16:31:29.743Z,28.08
2022-08-18T16:33:58.004Z,28.38
2022-08-18T16:36:25.865Z,28.40
2022-08-18T16:38:58.191Z,28.30
2022-08-18T16:41:26.978Z,28.19
2022-08-18T16:43:54.710Z,27.97
2022-08-18T16:46:26.220Z,28.30
2022-08-18T16:48:57.908Z,28.25
2022-08-18T16:51:28.185Z,28.22
2022-08-18T16:53:55.923Z,27.89
2022-08-18T16:56:26.488Z,28.01
2022-08-18T16:59:12.689Z,27.99
2022-08-18T17:01:59.248Z,27.63
2022-08-18T17:04:29.111Z,27.97
2022-08-18T17:06:57.093Z,27.90
2022-08-18T17:09:24.547Z,27.88
2022-08-18T17:11:53.181Z,27.78
2022-08-18T17:14:25.943Z,27.87
2022-08-18T17:16:55.257Z,27.66
2022-08-18T17:19:29.642Z,27.89
2022-08-18T17:21:57.224Z,27.85
2022-08-18T17:24:31.469Z,27.70
2022-08-18T17:27:26.210Z,27.86
2022-08-18T17:30:18.616Z,27.53
2022-08-18T17:33:01.354Z,27.71
2022-08-18T17:35:36.677Z,27.69
2022-08-18T17:38:21.579Z,27.69
2022-08-18T17:40:55.110Z,27.24
2022-08-18T17:43:26.161Z,27.62
2022-08-18T17:45:57.570Z,27.63
2022-08-18T17:48:33.147Z,27.52
2022-08-18T17:51:32.820Z,27.03
2022-08-18T17:54:22.124Z,27.62
2022-08-18T17:57:01.610Z,27.53
2022-08-18T17:59:45.385Z,27.43
2022-08-18T18:02:29.460Z,27.49
2022-08-18T18:04:59.793Z,27.40
2022-08-18T18:07:29.930Z,27.33
2022-08-18T18:10:06.395Z,27.23
2022-08-18T18:12:35.957Z,27.16
2022-08-18T18:15:08.168Z,27.25
2022-08-18T18:17:41.426Z,27.05
2022-08-18T18:20:41.306Z,27.28
2022-08-18T18:23:21.093Z,27.14
2022-08-18T18:25:50.567Z,26.92
2022-08-18T18:28:37.985Z,27.10
2022-08-18T18:31:25.146Z,27.12
2022-08-18T18:34:00.434Z,26.66
2022-08-18T18:36:45.540Z,26.76
2022-08-18T18:39:23.763Z,26.70
2022-08-18T18:42:30.685Z,26.85
2022-08-18T18:45:01.314Z,26.81
2022-08-18T18:47:57.953Z,26.86
2022-08-18T18:50:40.166Z,26.76
2022-08-18T18:53:52.083Z,26.74
2022-08-18T18:56:29.004Z,26.57
2022-08-18T18:58:59.053Z,26.59
2022-08-18T19:01:43.641Z,25.82
2022-08-18T19:04:21.043Z,26.51
2022-08-18T19:06:58.989Z,26.41
2022-08-18T19:09:50.334Z,26.08
2022-08-18T19:12:31.148Z,26.30
2022-08-18T19:15:06.133Z,26.31
2022-08-18T19:17:39.513Z,25.80
2022-08-18T19:20:22.522Z,25.55
2022-08-18T19:23:15.280Z,26.31
2022-08-18T19:26:00.633Z,26.19
2022-08-18T19:29:12.014Z,26.04
2022-08-18T19:31:32.008Z,26.08
2022-08-18T19:34:12.203Z,26.14
2022-08-18T19:36:58.318Z,25.27
2022-08-18T19:39:44.596Z,26.11
2022-08-18T19:42:22.038Z,26.13
2022-08-18T19:45:22.991Z,25.87
2022-08-18T19:47:53.269Z,26.06
2022-08-18T19:50:34.387Z,26.06
2022-08-18T19:53:22.759Z,26.01
2022-08-18T19:56:13.609Z,25.82
2022-08-18T19:59:18.423Z,25.16
2022-08-18T20:01:56.894Z,25.84
2022-08-18T20:04:43.736Z,25.87
2022-08-18T20:07:18.839Z,25.51
2022-08-18T20:10:26.053Z,25.76
2022-08-18T20:13:05.697Z,25.62
2022-08-18T20:15:32.841Z,25.37
2022-08-18T20:18:20.849Z,25.65
2022-08-18T20:21:26.615Z,25.64
2022-08-18T20:23:59.966Z,24.43
2022-08-18T20:26:39.052Z,25.55
2022-08-18T20:29:07.268Z,25.48
2022-08-18T20:32:06.459Z,25.51
2022-08-18T20:34:35.704Z,25.35
2022-08-18T20:37:08.482Z,25.03
2022-08-18T20:39:54.905Z,25.42
2022-08-18T20:42:21.996Z,25.37
2022-08-18T20:44:48.989Z,25.36
2022-08-18T20:47:43.851Z,25.41
2022-08-18T20:50:44.821Z,25.38
2022-08-18T20:53:50.419Z,25.32
2022-08-18T20:56:43.264Z,25.25
2022-08-18T20:59:20.486Z,24.76
2022-08-18T21:01:59.187Z,25.20
2022-08-18T21:04:44.291Z,24.74
2022-08-18T21:07:38.893Z,25.08
2022-08-18T21:10:30.261Z,25.15
2022-08-18T21:13:01.274Z,25.07
2022-08-18T21:15:35.641Z,24.96
2022-08-18T21:18:17.492Z,24.95
2022-08-18T21:20:48.415Z,24.93
2022-08-18T21:23:29.490Z,24.82
2022-08-18T21:26:14.166Z,24.84
2022-08-18T21:28:46.269Z,24.44
2022-08-18T21:31:42.823Z,24.96
2022-08-18T21:34:36.421Z,24.80
2022-08-18T21:37:08.013Z,23.64
2022-08-18T21:39:46.075Z,24.72
2022-08-18T21:42:19.538Z,24.76
2022-08-18T21:44:47.710Z,24.67
2022-08-18T21:47:20.600Z,24.69
2022-08-18T21:50:09.689Z,24.69
2022-08-18T21:52:51.829Z,24.58
2022-08-18T21:55:30.298Z,24.32
2022-08-18T21:58:02.573Z,24.53
2022-08-18T22:00:31.343Z,24.49
2022-08-18T22:03:19.692Z,24.55
2022-08-18T22:05:59.248Z,24.48
2022-08-18T22:08:44.513Z,24.32
2022-08-18T22:12:01.107Z,24.32
2022-08-18T22:14:29.034Z,24.09
2022-08-18T22:17:24.026Z,24.43
2022-08-18T22:19:51.594Z,24.02
2022-08-18T22:22:39.651Z,24.20
2022-08-18T22:25:08.071Z,23.42
2022-08-18T22:27:35.184Z,24.11
2022-08-18T22:30:05.885Z,24.04
2022-08-18T22:32:35.750Z,23.27
2022-08-18T22:35:05.575Z,24.04
2022-08-18T22:37:40.305Z,23.93
2022-08-18T22:40:12.456Z,24.12
2022-08-18T22:42:40.947Z,24.12
2022-08-18T22:45:13.674Z,24.06
2022-08-18T22:47:44.662Z,24.02
2022-08-18T22:50:13.193Z,23.93
2022-08-18T22:52:43.543Z,23.72
2022-08-18T22:55:13.387Z,23.85
2022-08-18T22:57:42.802Z,23.96
2022-08-18T23:00:21.225Z,24.13
2022-08-18T23:02:50.059Z,23.96
2022-08-18T23:05:17.122Z,23.63
2022-08-18T23:07:44.090Z,23.74
2022-08-18T23:10:13.996Z,23.81
2022-08-18T23:12:46.941Z,23.91
2022-08-18T23:15:16.110Z,23.65
2022-08-18T23:17:44.026Z,23.84
2022-08-18T23:20:17.423Z,23.78
2022-08-18T23:22:46.333Z,23.79
2022-08-18T23:25:13.570Z,23.42
2022-08-18T23:27:41.371Z,23.17
2022-08-18T23:30:09.408Z,23.60
2022-08-18T23:32:36.600Z,23.51
2022-08-18T23:35:04.062Z,23.31
2022-08-18T23:37:31.778Z,23.65
2022-08-18T23:39:59.459Z,23.41
2022-08-18T23:42:26.776Z,23.45
2022-08-18T23:44:53.827Z,23.37
2022-08-18T23:47:21.232Z,23.06
2022-08-18T23:49:48.510Z,23.37
2022-08-18T23:52:15.718Z,23.37
2022-08-18T23:54:42.646Z,22.29
2022-08-18T23:57:09.565Z,22.93
2022-08-18T23:59:36.756Z,23.26
